Time;durP1;ratioP1;P1;durP2;ratioP2;P2;SDS_P1;SDS_P2;PMS_P1;PMS_P2;Temp;Humidity;BMP_temperature;BMP_pressure;BME280_temperature;BME280_humidity;BME280_pressure;Samples;Min_cycle;Max_cycle;Signal;HPM_P1;HPM_P2
2023/03/05 00:01:08;;;;;;;;;;;18.60;37.90;;;;;;5096113;28;20383;-70
2023/03/05 00:03:33;;;;;;;;;;;19.10;37.30;;;;;;5094604;28;19959;-70
2023/03/05 00:05:59;;;;;;;;;;;19.60;36.40;;;;;;5094480;28;19955;-70
2023/03/05 00:08:24;;;;;;;;;;;20.00;35.90;;;;;;5094667;28;19920;-70
2023/03/05 00:10:58;;;;;;;;;;;20.40;35.30;;;;;;5094828;28;19928;-70
2023/03/05 00:13:23;;;;;;;;;;;20.70;34.70;;;;;;5095024;28;19920;-71
2023/03/05 00:15:49;;;;;;;;;;;21.00;34.30;;;;;;5095730;28;19920;-70
2023/03/05 00:18:14;;;;;;;;;;;21.20;34.10;;;;;;5094585;28;19920;-70
2023/03/05 00:20:40;;;;;;;;;;;21.30;33.70;;;;;;5094652;28;19927;-71
2023/03/05 00:23:05;;;;;;;;;;;21.40;33.70;;;;;;5094500;28;20446;-70
2023/03/05 00:25:33;;;;;;;;;;;21.40;33.50;;;;;;5115867;28;20060;-70
2023/03/05 00:27:59;;;;;;;;;;;21.40;33.40;;;;;;5115840;28;20401;-70
2023/03/05 00:30:24;;;;;;;;;;;21.30;33.40;;;;;;5115876;28;19920;-70
2023/03/05 00:32:50;;;;;;;;;;;21.20;33.50;;;;;;5097634;28;19924;-70
2023/03/05 00:35:15;;;;;;;;;;;21.20;33.60;;;;;;5097795;28;19932;-70
2023/03/05 00:37:41;;;;;;;;;;;21.00;33.50;;;;;;5097627;28;19920;-70
2023/03/05 00:40:07;;;;;;;;;;;21.00;33.70;;;;;;5115714;28;20413;-70
2023/03/05 00:42:37;;;;;;;;;;;20.80;33.80;;;;;;5097467;28;20279;-70
2023/03/05 00:45:04;;;;;;;;;;;20.70;33.80;;;;;;5115537;28;20319;-70
2023/03/05 00:47:30;;;;;;;;;;;20.60;34.00;;;;;;5097305;28;19920;-70
2023/03/05 00:49:55;;;;;;;;;;;20.50;34.10;;;;;;5097181;28;19923;-70
2023/03/05 00:52:21;;;;;;;;;;;20.30;34.20;;;;;;5097264;28;19970;-70
2023/03/05 00:54:46;;;;;;;;;;;20.10;34.30;;;;;;5097143;28;19953;-70
2023/03/05 00:57:12;;;;;;;;;;;20.00;34.60;;;;;;5096520;28;19927;-70
2023/03/05 00:59:37;;;;;;;;;;;19.90;34.70;;;;;;5097116;28;19919;-70
2023/03/05 01:02:03;;;;;;;;;;;19.70;34.90;;;;;;5097470;28;20018;-70
2023/03/05 01:04:28;;;;;;;;;;;19.50;35.00;;;;;;5097021;28;19972;-70
2023/03/05 01:06:54;;;;;;;;;;;19.40;35.10;;;;;;5096949;28;19920;-70
2023/03/05 01:09:20;;;;;;;;;;;19.30;35.40;;;;;;5115225;28;19924;-70
2023/03/05 01:11:46;;;;;;;;;;;19.20;35.50;;;;;;5115039;28;19931;-70
2023/03/05 01:14:12;;;;;;;;;;;19.10;35.70;;;;;;5097061;28;19920;-70
2023/03/05 01:16:37;;;;;;;;;;;19.00;35.80;;;;;;5096675;28;19920;-70
2023/03/05 01:19:03;;;;;;;;;;;18.90;36.00;;;;;;5114972;28;19920;-70
2023/03/05 01:21:29;;;;;;;;;;;18.70;36.00;;;;;;5114873;28;20010;-70
2023/03/05 01:23:54;;;;;;;;;;;18.70;36.20;;;;;;5114580;28;20010;-70
2023/03/05 01:26:20;;;;;;;;;;;18.60;36.30;;;;;;5096772;28;20316;-70
2023/03/05 01:28:46;;;;;;;;;;;18.50;36.50;;;;;;5130945;27;19931;-71
2023/03/05 01:31:11;;;;;;;;;;;18.40;36.60;;;;;;5114731;28;19920;-69
2023/03/05 01:33:37;;;;;;;;;;;18.30;36.70;;;;;;5096333;28;19920;-70
2023/03/05 01:36:08;;;;;;;;;;;18.20;36.80;;;;;;5096416;28;20004;-70
2023/03/05 01:38:34;;;;;;;;;;;18.10;36.90;;;;;;5096582;28;19920;-70
2023/03/05 01:41:00;;;;;;;;;;;18.00;37.00;;;;;;5130418;27;19920;-70
2023/03/05 01:43:27;;;;;;;;;;;18.00;37.10;;;;;;5096033;28;19953;-70
2023/03/05 01:46:15;;;;;;;;;;;17.90;37.20;;;;;;5096447;28;19926;-70
2023/03/05 01:48:44;;;;;;;;;;;17.80;37.30;;;;;;5096336;28;19963;-70
2023/03/05 01:51:10;;;;;;;;;;;17.70;37.40;;;;;;5096460;28;19920;-70
2023/03/05 01:53:36;;;;;;;;;;;17.70;37.60;;;;;;5096367;28;20252;-70
2023/03/05 01:56:02;;;;;;;;;;;17.60;37.60;;;;;;5114062;28;19926;-70
2023/03/05 01:58:27;;;;;;;;;;;17.60;37.70;;;;;;5096156;28;20014;-70
2023/03/05 02:00:54;;;;;;;;;;;17.50;37.80;;;;;;5096041;28;20316;-70
2023/03/05 02:03:21;;;;;;;;;;;17.50;37.80;;;;;;5114075;28;19924;-70
2023/03/05 02:05:46;;;;;;;;;;;17.40;37.90;;;;;;5095758;28;20333;-70
2023/03/05 02:08:14;;;;;;;;;;;17.40;38.00;;;;;;5094845;28;19920;-70
2023/03/05 02:10:48;;;;;;;;;;;17.30;38.00;;;;;;5095653;28;20383;-70
2023/03/05 02:13:15;;;;;;;;;;;17.20;38.10;;;;;;5095973;28;19946;-70
2023/03/05 02:15:41;;;;;;;;;;;17.20;38.30;;;;;;5095929;28;19920;-70
2023/03/05 02:18:07;;;;;;;;;;;17.10;38.40;;;;;;5095524;28;20268;-70
2023/03/05 02:20:50;;;;;;;;;;;17.10;38.40;;;;;;5113092;28;20290;-71
2023/03/05 02:23:16;;;;;;;;;;;17.00;38.50;;;;;;5095009;28;19931;-70
2023/03/05 02:25:41;;;;;;;;;;;16.90;38.60;;;;;;5113894;28;19923;-70
2023/03/05 02:28:13;;;;;;;;;;;16.80;38.70;;;;;;5113789;28;19943;-70
2023/03/05 02:30:39;;;;;;;;;;;16.80;38.80;;;;;;5095504;28;19926;-70
2023/03/05 02:33:12;;;;;;;;;;;16.70;38.80;;;;;;5095187;28;19920;-70
2023/03/05 02:35:42;;;;;;;;;;;16.90;39.10;;;;;;5095532;28;19919;-70
2023/03/05 02:38:08;;;;;;;;;;;16.60;39.00;;;;;;5079233;28;20401;-70
2023/03/05 02:40:34;;;;;;;;;;;16.30;39.00;;;;;;5095194;28;19919;-71
2023/03/05 02:42:59;;;;;;;;;;;16.50;39.30;;;;;;5113347;28;19920;-70
2023/03/05 02:45:25;;;;;;;;;;;16.40;39.30;;;;;;5094310;28;19997;-70
2023/03/05 02:47:50;;;;;;;;;;;16.40;39.40;;;;;;5095383;28;19920;-70
2023/03/05 02:50:16;;;;;;;;;;;16.40;39.50;;;;;;5095064;28;19920;-70
2023/03/05 02:52:41;;;;;;;;;;;16.30;39.70;;;;;;5113286;28;20019;-70
2023/03/05 02:55:07;;;;;;;;;;;16.20;39.80;;;;;;5094740;28;19945;-70
2023/03/05 02:57:33;;;;;;;;;;;16.20;39.80;;;;;;5094941;28;19926;-70
2023/03/05 02:59:58;;;;;;;;;;;16.10;39.90;;;;;;5095196;28;19966;-70
2023/03/05 03:02:24;;;;;;;;;;;16.10;40.10;;;;;;5128969;27;19919;-70
2023/03/05 03:04:49;;;;;;;;;;;16.00;40.10;;;;;;5094882;28;19961;-70
2023/03/05 03:07:15;;;;;;;;;;;16.00;40.10;;;;;;5094945;28;19924;-70
2023/03/05 03:09:41;;;;;;;;;;;16.00;40.20;;;;;;5128716;27;19919;-70
2023/03/05 03:12:07;;;;;;;;;;;16.00;40.20;;;;;;5094644;28;20011;-70
2023/03/05 03:14:38;;;;;;;;;;;15.90;40.30;;;;;;5129158;27;19919;-70
2023/03/05 03:17:04;;;;;;;;;;;15.90;40.30;;;;;;5077857;28;19927;-70
2023/03/05 03:19:30;;;;;;;;;;;15.90;40.40;;;;;;5112711;28;19970;-70
2023/03/05 03:21:56;;;;;;;;;;;15.90;40.40;;;;;;5094489;28;19963;-70
2023/03/05 03:24:21;;;;;;;;;;;15.80;40.40;;;;;;5094344;28;19931;-71
2023/03/05 03:26:48;;;;;;;;;;;15.80;40.40;;;;;;5094376;28;19919;-70
2023/03/05 03:29:14;;;;;;;;;;;15.80;40.40;;;;;;5112730;28;19945;-70
2023/03/05 03:31:40;;;;;;;;;;;15.80;40.40;;;;;;5094391;28;19984;-70
2023/03/05 03:34:06;;;;;;;;;;;15.80;40.40;;;;;;5094564;28;19924;-69
2023/03/05 03:36:32;;;;;;;;;;;15.80;40.50;;;;;;5094682;28;19926;-70
2023/03/05 03:39:02;;;;;;;;;;;15.80;40.60;;;;;;5094940;28;19953;-70
2023/03/05 03:41:28;;;;;;;;;;;15.70;40.60;;;;;;5094341;28;19920;-70
2023/03/05 03:43:53;;;;;;;;;;;15.70;40.50;;;;;;5128450;28;19992;-69
2023/03/05 03:46:19;;;;;;;;;;;15.70;40.60;;;;;;5128381;28;19974;-69
2023/03/05 03:48:48;;;;;;;;;;;15.70;40.70;;;;;;5094434;28;20011;-69
2023/03/05 03:51:13;;;;;;;;;;;15.60;40.70;;;;;;5112514;28;19993;-69
2023/03/05 03:53:39;;;;;;;;;;;15.60;40.80;;;;;;5112478;28;20022;-69
2023/03/05 03:56:05;;;;;;;;;;;15.60;40.90;;;;;;5112546;28;20006;-69
2023/03/05 03:58:33;;;;;;;;;;;15.60;40.90;;;;;;5094524;28;19920;-69
2023/03/05 04:00:59;;;;;;;;;;;15.60;41.00;;;;;;5112536;28;20354;-69
2023/03/05 04:03:24;;;;;;;;;;;15.60;41.00;;;;;;5093761;28;19920;-72
2023/03/05 04:05:50;;;;;;;;;;;15.50;41.00;;;;;;5112454;28;19924;-69
2023/03/05 04:08:15;;;;;;;;;;;15.60;41.00;;;;;;5112400;28;20186;-69
2023/03/05 04:10:41;;;;;;;;;;;15.50;41.00;;;;;;5094431;28;19927;-69
2023/03/05 04:13:07;;;;;;;;;;;15.50;41.00;;;;;;5112523;28;19919;-69
2023/03/05 04:15:32;;;;;;;;;;;15.50;41.00;;;;;;5094285;28;19968;-70
2023/03/05 04:17:58;;;;;;;;;;;15.50;41.10;;;;;;5112255;28;19920;-70
2023/03/05 04:20:24;;;;;;;;;;;15.50;41.10;;;;;;5094069;28;20389;-70
2023/03/05 04:22:50;;;;;;;;;;;15.50;41.00;;;;;;5094202;28;19920;-69
2023/03/05 04:25:15;;;;;;;;;;;15.70;41.10;;;;;;5093739;28;20421;-69
2023/03/05 04:27:44;;;;;;;;;;;15.90;40.80;;;;;;5094247;28;19931;-70
2023/03/05 04:30:11;;;;;;;;;;;16.00;40.60;;;;;;5094000;28;20420;-69
2023/03/05 04:32:36;;;;;;;;;;;16.20;40.30;;;;;;5114722;28;20388;-69
2023/03/05 04:35:02;;;;;;;;;;;16.40;40.00;;;;;;5115879;28;19920;-69
2023/03/05 04:37:28;;;;;;;;;;;16.80;39.80;;;;;;5097546;28;20018;-70
2023/03/05 04:39:53;;;;;;;;;;;17.00;39.40;;;;;;5097789;28;19920;-69
2023/03/05 04:42:19;;;;;;;;;;;17.40;38.90;;;;;;5115972;28;20117;-70
2023/03/05 04:44:47;;;;;;;;;;;17.80;38.40;;;;;;5097257;28;19981;-70
2023/03/05 04:47:12;;;;;;;;;;;18.30;37.60;;;;;;5097405;28;19930;-70
2023/03/05 04:49:38;;;;;;;;;;;18.80;37.10;;;;;;5115614;28;19928;-70
2023/03/05 04:52:03;;;;;;;;;;;19.20;36.60;;;;;;5115550;28;20275;-69
2023/03/05 04:54:29;;;;;;;;;;;19.70;36.00;;;;;;5097378;28;19919;-70
2023/03/05 04:56:55;;;;;;;;;;;20.10;35.40;;;;;;5130909;27;20293;-70
2023/03/05 04:59:20;;;;;;;;;;;20.50;34.90;;;;;;5115384;28;20363;-70
2023/03/05 05:01:46;;;;;;;;;;;20.90;34.50;;;;;;5097033;28;20321;-69
2023/03/05 05:04:11;;;;;;;;;;;21.20;34.00;;;;;;5096854;28;19924;-70
2023/03/05 05:06:37;;;;;;;;;;;21.40;33.60;;;;;;5115330;28;19959;-70
2023/03/05 05:09:02;;;;;;;;;;;21.60;33.50;;;;;;5096855;28;19920;-70
2023/03/05 05:11:28;;;;;;;;;;;21.70;33.10;;;;;;5097389;28;19927;-70
2023/03/05 05:13:53;;;;;;;;;;;21.80;32.90;;;;;;5097101;28;20490;-70
2023/03/05 05:16:19;;;;;;;;;;;21.80;32.90;;;;;;5097076;28;19920;-70
2023/03/05 05:18:44;;;;;;;;;;;21.70;32.80;;;;;;5097011;28;19946;-70
2023/03/05 05:21:13;;;;;;;;;;;21.70;32.70;;;;;;5096624;28;19920;-70
2023/03/05 05:23:39;;;;;;;;;;;21.60;32.80;;;;;;5096217;28;20019;-70
2023/03/05 05:26:05;;;;;;;;;;;21.60;32.80;;;;;;5096800;28;19973;-69
2023/03/05 05:28:31;;;;;;;;;;;21.50;32.90;;;;;;5114761;28;19926;-70
2023/03/05 05:30:57;;;;;;;;;;;21.30;32.90;;;;;;5114903;28;20018;-70
2023/03/05 05:33:23;;;;;;;;;;;21.30;33.20;;;;;;5114805;28;19970;-70
2023/03/05 05:35:48;;;;;;;;;;;21.10;33.10;;;;;;5096645;28;19920;-70
2023/03/05 05:38:14;;;;;;;;;;;21.00;33.30;;;;;;5096347;28;20371;-70
2023/03/05 05:40:39;;;;;;;;;;;20.80;33.50;;;;;;5096505;28;20014;-70
2023/03/05 05:43:05;;;;;;;;;;;20.70;33.70;;;;;;5114963;28;20297;-70
2023/03/05 05:45:31;;;;;;;;;;;20.50;33.80;;;;;;5096020;28;20260;-70
2023/03/05 05:47:57;;;;;;;;;;;20.30;33.90;;;;;;5096229;28;19931;-70
2023/03/05 05:50:22;;;;;;;;;;;20.20;34.20;;;;;;5096306;28;19920;-71
2023/03/05 05:52:49;;;;;;;;;;;20.10;34.40;;;;;;5096143;28;19928;-70
2023/03/05 05:55:15;;;;;;;;;;;19.90;34.60;;;;;;5096057;28;19962;-70
2023/03/05 05:57:40;;;;;;;;;;;19.70;34.60;;;;;;5114485;28;19967;-69
2023/03/05 06:00:07;;;;;;;;;;;19.60;34.90;;;;;;5096191;28;19920;-70
2023/03/05 06:02:33;;;;;;;;;;;19.40;35.00;;;;;;5096154;28;19926;-70
2023/03/05 06:04:59;;;;;;;;;;;19.30;35.20;;;;;;5114164;28;20378;-69
2023/03/05 06:07:24;;;;;;;;;;;19.20;35.30;;;;;;5130155;27;20264;-70
2023/03/05 06:09:50;;;;;;;;;;;19.10;35.50;;;;;;5095769;28;20011;-70
2023/03/05 06:12:15;;;;;;;;;;;19.00;35.50;;;;;;5129718;27;19923;-70
2023/03/05 06:14:41;;;;;;;;;;;18.90;35.70;;;;;;5095726;28;19927;-70
2023/03/05 06:17:06;;;;;;;;;;;18.80;35.80;;;;;;5095566;28;19920;-70
2023/03/05 06:19:32;;;;;;;;;;;18.80;35.90;;;;;;5129990;27;19924;-70
2023/03/05 06:21:57;;;;;;;;;;;18.70;36.00;;;;;;5113730;28;19920;-71
2023/03/05 06:24:23;;;;;;;;;;;18.60;36.10;;;;;;5095459;28;19924;-70
2023/03/05 06:26:48;;;;;;;;;;;18.50;36.30;;;;;;5129744;27;20328;-70
2023/03/05 06:29:14;;;;;;;;;;;18.50;36.40;;;;;;5095500;28;19967;-70
2023/03/05 06:31:40;;;;;;;;;;;18.40;37.20;;;;;;5095275;28;19919;-70
2023/03/05 06:34:05;;;;;;;;;;;18.40;36.60;;;;;;5095606;28;19962;-70
2023/03/05 06:36:31;;;;;;;;;;;18.30;36.70;;;;;;5095125;28;19978;-71
2023/03/05 06:38:57;;;;;;;;;;;18.20;36.80;;;;;;5113524;28;19919;-70
2023/03/05 06:41:24;;;;;;;;;;;18.20;36.90;;;;;;5095505;28;19919;-70
2023/03/05 06:43:50;;;;;;;;;;;18.10;36.90;;;;;;5129128;27;19966;-69
2023/03/05 06:48:58;;;;;;;;;;;18.00;37.10;;;;;;5110251;27;19922;-70
2023/03/05 06:51:25;;;;;;;;;;;17.90;37.10;;;;;;5108355;28;19920;-71
2023/03/05 06:53:51;;;;;;;;;;;17.90;37.20;;;;;;5108908;28;20382;-70
2023/03/05 06:56:18;;;;;;;;;;;17.90;37.30;;;;;;5108745;28;19920;-69
2023/03/05 06:58:44;;;;;;;;;;;17.80;37.40;;;;;;5109164;28;19993;-70
2023/03/05 07:01:10;;;;;;;;;;;17.80;37.50;;;;;;5143201;27;19942;-70
2023/03/05 07:03:36;;;;;;;;;;;17.70;37.50;;;;;;5108696;28;19920;-70
2023/03/05 07:06:06;;;;;;;;;;;17.70;37.60;;;;;;5109037;28;19965;-70
2023/03/05 07:08:32;;;;;;;;;;;17.60;37.70;;;;;;5108548;28;19979;-70
2023/03/05 07:10:58;;;;;;;;;;;17.60;37.70;;;;;;5108526;28;19963;-71
2023/03/05 07:13:23;;;;;;;;;;;17.50;37.70;;;;;;5092075;28;19920;-70
2023/03/05 07:15:49;;;;;;;;;;;17.50;37.90;;;;;;5108555;28;19927;-71
2023/03/05 07:18:14;;;;;;;;;;;17.40;37.90;;;;;;5108477;28;19966;-70
2023/03/05 07:20:40;;;;;;;;;;;17.40;38.80;;;;;;5108711;28;19919;-71
2023/03/05 07:23:06;;;;;;;;;;;17.30;38.00;;;;;;5108375;28;20094;-70
2023/03/05 07:25:31;;;;;;;;;;;17.30;38.10;;;;;;5108431;28;19927;-71
2023/03/05 07:27:57;;;;;;;;;;;17.30;38.20;;;;;;5108352;28;19924;-70
2023/03/05 07:30:22;;;;;;;;;;;17.20;38.20;;;;;;5108612;28;19920;-70
2023/03/05 07:32:48;;;;;;;;;;;17.20;38.30;;;;;;5108304;28;19924;-70
2023/03/05 07:35:13;;;;;;;;;;;17.10;38.30;;;;;;5108181;28;19927;-70
2023/03/05 07:37:39;;;;;;;;;;;17.10;38.40;;;;;;5108466;28;19920;-71
2023/03/05 07:40:05;;;;;;;;;;;17.10;38.60;;;;;;5108383;28;20328;-71
2023/03/05 07:42:31;;;;;;;;;;;17.00;38.60;;;;;;5108339;28;20512;-71
2023/03/05 07:44:56;;;;;;;;;;;17.00;38.70;;;;;;5107982;28;20002;-70
2023/03/05 07:47:22;;;;;;;;;;;16.90;38.70;;;;;;5116473;28;19946;-71
2023/03/05 07:49:48;;;;;;;;;;;16.90;38.80;;;;;;5111316;28;19971;-71
2023/03/05 07:52:14;;;;;;;;;;;16.90;38.90;;;;;;5111509;28;19920;-71
2023/03/05 07:54:39;;;;;;;;;;;16.80;39.00;;;;;;5129490;28;19920;-70
2023/03/05 07:57:05;;;;;;;;;;;16.70;39.10;;;;;;5111366;28;19919;-70
2023/03/05 07:59:31;;;;;;;;;;;16.70;39.20;;;;;;5101749;28;19920;-72
2023/03/05 08:01:57;;;;;;;;;;;16.60;39.30;;;;;;5097720;28;19943;-70
2023/03/05 08:04:23;;;;;;;;;;;16.60;39.40;;;;;;5115679;28;20386;-71
2023/03/05 08:06:48;;;;;;;;;;;16.50;39.40;;;;;;5097291;28;19928;-70
2023/03/05 08:09:15;;;;;;;;;;;16.50;39.40;;;;;;5097271;28;19919;-71
2023/03/05 08:11:43;;;;;;;;;;;16.50;39.40;;;;;;5097544;28;19943;-71
2023/03/05 08:14:10;;;;;;;;;;;16.70;39.60;;;;;;5115384;28;19970;-71
2023/03/05 08:16:35;;;;;;;;;;;16.40;39.40;;;;;;5115377;28;19920;-71
2023/03/05 08:19:01;;;;;;;;;;;16.40;39.40;;;;;;5097121;28;19927;-71
2023/03/05 08:21:28;;;;;;;;;;;16.40;39.50;;;;;;5097019;28;19926;-71
2023/03/05 08:23:55;;;;;;;;;;;16.40;39.60;;;;;;5096880;28;19920;-70
2023/03/05 08:26:21;;;;;;;;;;;16.30;39.50;;;;;;5097235;28;19984;-70
2023/03/05 08:28:47;;;;;;;;;;;16.30;39.60;;;;;;5096919;28;20014;-70
2023/03/05 08:31:13;;;;;;;;;;;16.30;39.80;;;;;;5115038;28;20010;-71
2023/03/05 08:33:39;;;;;;;;;;;16.20;39.80;;;;;;5096821;28;19930;-71
2023/03/05 08:36:04;;;;;;;;;;;16.20;39.80;;;;;;5097241;28;19919;-70
2023/03/05 08:38:30;;;;;;;;;;;16.20;39.90;;;;;;5097005;28;20408;-70
2023/03/05 08:40:56;;;;;;;;;;;16.10;39.80;;;;;;5114970;28;19927;-70
2023/03/05 08:43:24;;;;;;;;;;;16.20;40.00;;;;;;5114850;28;20367;-71
2023/03/05 08:45:52;;;;;;;;;;;16.10;40.10;;;;;;5096526;28;19926;-70
2023/03/05 08:48:18;;;;;;;;;;;16.10;40.00;;;;;;5092815;28;19931;-70
2023/03/05 08:50:43;;;;;;;;;;;16.00;40.10;;;;;;5093153;28;20345;-70
2023/03/05 08:53:09;;;;;;;;;;;16.00;40.10;;;;;;5093304;28;19920;-70
2023/03/05 08:55:37;;;;;;;;;;;16.00;40.10;;;;;;5094430;28;19971;-71
2023/03/05 08:58:03;;;;;;;;;;;16.00;40.90;;;;;;5127000;27;19924;-71
2023/03/05 09:00:29;;;;;;;;;;;15.90;40.20;;;;;;5093184;28;19924;-71
2023/03/05 09:02:54;;;;;;;;;;;15.90;40.20;;;;;;5094346;28;19920;-70
2023/03/05 09:05:20;;;;;;;;;;;15.90;40.30;;;;;;5093084;28;20424;-71
2023/03/05 09:07:46;;;;;;;;;;;15.90;40.30;;;;;;5092842;28;19924;-70
2023/03/05 09:10:13;;;;;;;;;;;15.90;40.30;;;;;;5092203;28;19966;-70
2023/03/05 09:12:39;;;;;;;;;;;15.90;40.30;;;;;;5092749;28;19923;-70
2023/03/05 09:15:07;;;;;;;;;;;15.80;40.30;;;;;;5093908;28;19928;-70
2023/03/05 09:17:33;;;;;;;;;;;15.90;40.40;;;;;;5127079;27;19920;-71
2023/03/05 09:19:59;;;;;;;;;;;15.80;40.40;;;;;;5093862;28;20337;-71
2023/03/05 09:22:25;;;;;;;;;;;15.80;40.40;;;;;;5092370;28;19920;-71
2023/03/05 09:24:50;;;;;;;;;;;15.80;40.30;;;;;;5092825;28;19969;-70
2023/03/05 09:27:16;;;;;;;;;;;15.80;40.40;;;;;;5092486;28;20352;-70
2023/03/05 09:29:41;;;;;;;;;;;15.80;40.30;;;;;;5092286;28;19924;-71
2023/03/05 09:32:07;;;;;;;;;;;15.80;40.30;;;;;;5092297;28;19924;-70
2023/03/05 09:34:33;;;;;;;;;;;15.80;40.30;;;;;;5093480;28;20010;-70
2023/03/05 09:36:59;;;;;;;;;;;15.80;40.30;;;;;;5092299;28;19924;-70
2023/03/05 09:39:24;;;;;;;;;;;15.70;40.30;;;;;;5092210;28;19920;-70
2023/03/05 09:41:57;;;;;;;;;;;15.70;40.30;;;;;;5093445;28;19920;-71
2023/03/05 09:44:32;;;;;;;;;;;15.70;40.30;;;;;;5092302;28;19920;-70
2023/03/05 09:49:49;;;;;;;;;;;15.70;40.40;;;;;;5110323;27;19919;-70
2023/03/05 09:52:21;;;;;;;;;;;15.70;40.40;;;;;;5109028;28;20450;-70
2023/03/05 09:54:51;;;;;;;;;;;15.70;40.40;;;;;;5108768;28;19920;-70
2023/03/05 09:57:21;;;;;;;;;;;15.60;40.30;;;;;;5109026;28;20333;-70
2023/03/05 09:59:49;;;;;;;;;;;15.60;40.40;;;;;;5109073;28;19920;-70
2023/03/05 10:02:33;;;;;;;;;;;15.60;40.50;;;;;;5109201;28;20052;-71
2023/03/05 10:05:03;;;;;;;;;;;15.60;40.60;;;;;;5109936;28;19942;-69
2023/03/05 10:07:35;;;;;;;;;;;15.60;40.60;;;;;;5108995;28;20371;-70
2023/03/05 10:10:02;;;;;;;;;;;15.60;40.60;;;;;;5108571;28;20006;-70
2023/03/05 10:12:51;;;;;;;;;;;15.60;40.60;;;;;;5108943;28;19920;-70
2023/03/05 10:15:23;;;;;;;;;;;15.50;40.60;;;;;;5108384;28;19920;-70
2023/03/05 10:18:09;;;;;;;;;;;15.50;40.60;;;;;;5108504;28;19962;-70
2023/03/05 10:23:33;;;;;;;;;;;15.40;40.70;;;;;;5129525;27;1868390;-70
2023/03/05 10:28:47;;;;;;;;;;;15.50;40.80;;;;;;5110388;27;19914;-70
2023/03/05 10:31:33;;;;;;;;;;;15.40;40.70;;;;;;5110144;28;19920;-73
2023/03/05 10:39:42;;;;;;;;;;;15.40;40.80;;;;;;5110301;27;19919;-70
2023/03/05 10:42:15;;;;;;;;;;;15.40;40.80;;;;;;5108702;28;19924;-70
2023/03/05 10:44:45;;;;;;;;;;;15.40;40.80;;;;;;5110238;28;19966;-70
2023/03/05 10:47:13;;;;;;;;;;;15.40;40.80;;;;;;5109070;28;20452;-70
2023/03/05 10:49:44;;;;;;;;;;;15.40;40.80;;;;;;5108159;28;19920;-70
2023/03/05 10:52:14;;;;;;;;;;;15.40;40.80;;;;;;5108702;28;19919;-70
2023/03/05 10:54:41;;;;;;;;;;;15.40;40.80;;;;;;5109102;28;19919;-69
2023/03/05 10:57:23;;;;;;;;;;;15.40;40.80;;;;;;5108838;28;19919;-70
2023/03/05 10:59:51;;;;;;;;;;;15.40;40.80;;;;;;5108864;28;20348;-70
2023/03/05 11:02:17;;;;;;;;;;;15.40;40.80;;;;;;5108577;28;20383;-70
2023/03/05 11:04:43;;;;;;;;;;;15.40;40.80;;;;;;5108569;28;19967;-70
2023/03/05 11:12:37;;;;;;;;;;;15.20;40.70;;;;;;5127350;27;1866054;-70
2023/03/05 11:18:11;;;;;;;;;;;15.30;40.80;;;;;;5090769;27;19913;-70
2023/03/05 11:20:38;;;;;;;;;;;15.30;40.80;;;;;;5089758;28;20306;-70
2023/03/05 11:25:53;;;;;;;;;;;15.30;40.90;;;;;;5110235;27;19934;-70
2023/03/05 11:28:20;;;;;;;;;;;15.30;40.80;;;;;;5109297;28;19920;-70
2023/03/05 11:31:06;;;;;;;;;;;15.60;41.00;;;;;;5108955;28;20019;-70
2023/03/05 11:33:33;;;;;;;;;;;15.20;40.80;;;;;;5109127;28;19927;-70
2023/03/05 11:36:18;;;;;;;;;;;15.20;40.80;;;;;;5109552;28;19927;-70
2023/03/05 11:38:45;;;;;;;;;;;15.20;40.90;;;;;;5108866;28;19920;-70
2023/03/05 11:41:11;;;;;;;;;;;15.30;40.90;;;;;;5108782;28;19920;-71
2023/03/05 11:43:40;;;;;;;;;;;15.20;40.80;;;;;;5108791;28;19930;-70
2023/03/05 11:46:08;;;;;;;;;;;15.20;40.80;;;;;;5109846;28;19919;-70
2023/03/05 11:48:35;;;;;;;;;;;15.20;40.90;;;;;;5110069;28;19928;-70
2023/03/05 11:51:06;;;;;;;;;;;15.20;40.90;;;;;;5108596;28;19927;-70
2023/03/05 11:53:34;;;;;;;;;;;15.20;40.90;;;;;;5108744;28;20150;-70
2023/03/05 11:56:20;;;;;;;;;;;15.20;40.90;;;;;;5108408;28;20021;-69
2023/03/05 11:59:05;;;;;;;;;;;15.20;40.80;;;;;;5142342;27;19969;-70
2023/03/05 12:01:33;;;;;;;;;;;15.20;40.80;;;;;;5109458;28;19923;-70
2023/03/05 12:03:59;;;;;;;;;;;15.20;40.80;;;;;;5109597;28;20295;-69
2023/03/05 12:11:57;;;;;;;;;;;15.20;40.90;;;;;;5090024;28;19912;-69
2023/03/05 12:17:15;;;;;;;;;;;15.10;40.90;;;;;;5110433;27;19918;-70
2023/03/05 12:22:32;;;;;;;;;;;15.10;40.90;;;;;;5125572;27;1925709;-70
2023/03/05 12:25:18;;;;;;;;;;;15.10;40.90;;;;;;5193186;27;19971;-70
2023/03/05 12:27:43;;;;;;;;;;;15.10;41.00;;;;;;5174328;27;20373;-71
2023/03/05 12:30:29;;;;;;;;;;;15.10;40.90;;;;;;5174246;27;20072;-72
2023/03/05 12:32:54;;;;;;;;;;;15.10;40.90;;;;;;5174082;27;19963;-71
2023/03/05 12:38:02;;;;;;;;;;;15.10;41.00;;;;;;5110244;27;19912;-70
2023/03/05 12:43:28;;;;;;;;;;;15.10;41.10;;;;;;5110343;27;19944;-70
2023/03/05 12:46:14;;;;;;;;;;;15.00;41.00;;;;;;5108774;28;20384;-69
2023/03/05 12:48:41;;;;;;;;;;;15.10;41.10;;;;;;5108680;28;19920;-70
2023/03/05 12:51:10;;;;;;;;;;;15.00;41.10;;;;;;5108832;28;19920;-70
2023/03/05 12:53:35;;;;;;;;;;;15.00;41.10;;;;;;5108866;28;19977;-69
2023/03/05 12:56:09;;;;;;;;;;;15.00;41.10;;;;;;5109041;28;19924;-69
2023/03/05 13:04:09;;;;;;;;;;;15.00;41.10;;;;;;5089529;28;19913;-70
2023/03/05 13:06:36;;;;;;;;;;;14.90;41.10;;;;;;5088622;28;19920;-70
2023/03/05 13:09:21;;;;;;;;;;;15.00;41.10;;;;;;5088569;28;19931;-70
2023/03/05 13:11:48;;;;;;;;;;;14.90;41.10;;;;;;5088633;28;19930;-70
2023/03/05 13:14:27;;;;;;;;;;;15.00;41.20;;;;;;5088826;28;19920;-70
2023/03/05 13:16:53;;;;;;;;;;;15.00;41.30;;;;;;5089001;28;19977;-70
2023/03/05 13:19:19;;;;;;;;;;;15.00;41.30;;;;;;5088430;28;19928;-70
2023/03/05 13:21:45;;;;;;;;;;;15.00;41.30;;;;;;5088489;28;19924;-70
2023/03/05 13:24:15;;;;;;;;;;;15.00;41.30;;;;;;5105614;28;20265;-70
2023/03/05 13:26:40;;;;;;;;;;;15.00;41.30;;;;;;5071713;28;19927;-70
2023/03/05 13:31:55;;;;;;;;;;;14.90;41.30;;;;;;5089890;28;19926;-70
2023/03/05 13:37:06;;;;;;;;;;;14.90;41.30;;;;;;5090106;28;19917;-70
2023/03/05 13:39:33;;;;;;;;;;;14.90;41.30;;;;;;5088659;28;19921;-70
2023/03/05 13:44:41;;;;;;;;;;;15.00;41.40;;;;;;5089913;28;19944;-70
2023/03/05 13:47:08;;;;;;;;;;;14.90;41.30;;;;;;5088782;28;20017;-70
2023/03/05 13:49:33;;;;;;;;;;;15.00;41.40;;;;;;5088942;28;19985;-70
2023/03/05 13:51:59;;;;;;;;;;;14.90;41.30;;;;;;5088469;28;20387;-69
2023/03/05 13:54:28;;;;;;;;;;;14.90;41.30;;;;;;5088691;28;19920;-70
2023/03/05 13:56:57;;;;;;;;;;;14.90;41.40;;;;;;5088303;28;19920;-69
2023/03/05 13:59:24;;;;;;;;;;;14.90;41.40;;;;;;5088674;28;20015;-69
2023/03/05 14:01:51;;;;;;;;;;;14.90;41.40;;;;;;5088563;28;20295;-70
2023/03/05 14:04:18;;;;;;;;;;;14.90;41.40;;;;;;5089598;28;20007;-70
2023/03/05 14:06:47;;;;;;;;;;;14.90;41.40;;;;;;5088509;28;19927;-70
2023/03/05 14:12:02;;;;;;;;;;;14.90;41.40;;;;;;5126607;27;1892257;-69
2023/03/05 14:14:29;;;;;;;;;;;14.90;41.40;;;;;;5174827;27;19926;-70
2023/03/05 14:16:55;;;;;;;;;;;14.80;41.30;;;;;;5174578;27;19923;-70
2023/03/05 14:19:36;;;;;;;;;;;14.80;41.40;;;;;;5174579;27;20395;-70
2023/03/05 14:22:03;;;;;;;;;;;14.80;41.40;;;;;;5174329;27;19929;-70
2023/03/05 14:24:30;;;;;;;;;;;14.80;41.40;;;;;;5174585;27;20281;-69
2023/03/05 14:26:58;;;;;;;;;;;14.80;41.40;;;;;;5193133;27;19918;-69
2023/03/05 14:29:25;;;;;;;;;;;14.80;41.50;;;;;;5192942;27;19926;-70
2023/03/05 14:31:52;;;;;;;;;;;14.80;41.50;;;;;;5173973;27;19923;-70
2023/03/05 14:34:21;;;;;;;;;;;14.80;41.60;;;;;;5192834;27;20367;-72
2023/03/05 14:36:48;;;;;;;;;;;14.80;41.60;;;;;;5193009;27;19925;-72
2023/03/05 14:39:25;;;;;;;;;;;14.80;41.60;;;;;;5174172;27;20337;-72
2023/03/05 14:41:51;;;;;;;;;;;14.80;41.60;;;;;;5192843;27;19918;-72
2023/03/05 14:44:17;;;;;;;;;;;14.70;41.50;;;;;;5174340;27;19918;-72
2023/03/05 14:46:47;;;;;;;;;;;15.10;41.60;;;;;;5192578;27;19918;-72
2023/03/05 14:49:12;;;;;;;;;;;15.40;41.20;;;;;;5175225;27;19918;-71
2023/03/05 14:51:40;;;;;;;;;;;15.80;40.60;;;;;;5152915;27;19930;-72
2023/03/05 14:54:05;;;;;;;;;;;16.30;40.10;;;;;;5171497;27;20006;-71
2023/03/05 14:56:31;;;;;;;;;;;16.90;39.40;;;;;;5171504;27;20443;-72
2023/03/05 14:58:57;;;;;;;;;;;17.60;38.60;;;;;;5153026;27;19963;-71
2023/03/05 15:01:24;;;;;;;;;;;18.20;37.90;;;;;;5171278;27;20294;-72
2023/03/05 15:03:49;;;;;;;;;;;18.70;36.90;;;;;;5152865;27;19926;-72
2023/03/05 15:06:26;;;;;;;;;;;19.20;36.10;;;;;;5152653;27;20389;-72
2023/03/05 15:08:52;;;;;;;;;;;19.70;35.80;;;;;;5171118;27;19922;-71
2023/03/05 15:11:17;;;;;;;;;;;20.20;35.00;;;;;;5152183;27;19930;-72
2023/03/05 15:13:48;;;;;;;;;;;20.50;34.20;;;;;;5152704;27;20013;-72
2023/03/05 15:16:15;;;;;;;;;;;20.80;33.90;;;;;;5152768;27;19949;-73
2023/03/05 15:18:40;;;;;;;;;;;21.00;33.60;;;;;;5171126;27;19971;-72